createdAt,value
2019-06-27T00:02:07.598Z,99.90
2019-06-27T00:04:37.089Z,99.90
2019-06-27T00:07:06.583Z,99.90
2019-06-27T00:09:36.076Z,99.90
2019-06-27T00:12:05.731Z,99.90
2019-06-27T00:14:35.244Z,99.90
2019-06-27T00:17:04.815Z,99.90
2019-06-27T00:19:34.403Z,99.90
2019-06-27T00:22:04.021Z,99.90
2019-06-27T00:24:33.708Z,99.90
2019-06-27T00:27:03.204Z,99.90
2019-06-27T00:29:32.748Z,99.90
2019-06-27T00:32:02.236Z,99.90
2019-06-27T00:34:31.748Z,99.90
2019-06-27T00:37:01.200Z,99.90
2019-06-27T00:39:30.708Z,99.90
2019-06-27T00:42:00.151Z,99.90
2019-06-27T00:44:29.670Z,99.90
2019-06-27T00:46:59.140Z,99.90
2019-06-27T00:49:28.678Z,99.90
2019-06-27T00:51:58.192Z,99.90
2019-06-27T00:54:27.782Z,99.90
2019-06-27T00:57:12.929Z,99.90
2019-06-27T00:59:28.373Z,99.90
2019-06-27T01:01:57.847Z,99.90
2019-06-27T01:04:27.339Z,99.90
2019-06-27T01:06:56.825Z,99.90
2019-06-27T01:09:26.290Z,99.90
2019-06-27T01:11:55.728Z,99.90
2019-06-27T01:14:25.233Z,99.90
2019-06-27T01:16:54.702Z,99.90
2019-06-27T01:19:24.233Z,99.90
2019-06-27T01:21:53.681Z,99.90
2019-06-27T01:24:23.180Z,99.90
2019-06-27T01:26:52.628Z,99.90
2019-06-27T01:29:22.159Z,99.90
2019-06-27T01:31:51.603Z,99.90
2019-06-27T01:34:21.129Z,99.90
2019-06-27T01:36:50.608Z,99.90
2019-06-27T01:39:20.108Z,99.90
2019-06-27T01:41:49.639Z,99.90
2019-06-27T01:44:42.674Z,99.90
2019-06-27T01:47:12.135Z,99.90
2019-06-27T01:49:42.438Z,99.90
2019-06-27T01:52:11.925Z,99.90
2019-06-27T01:54:41.434Z,99.90
2019-06-27T01:57:10.883Z,99.90
2019-06-27T01:59:40.405Z,99.90
2019-06-27T02:02:09.891Z,99.90
2019-06-27T02:04:39.418Z,99.90
2019-06-27T02:07:08.904Z,99.90
2019-06-27T02:09:38.369Z,99.90
2019-06-27T02:12:07.815Z,99.90
2019-06-27T02:14:37.315Z,99.90
2019-06-27T02:17:06.809Z,99.90
2019-06-27T02:19:36.248Z,99.90
2019-06-27T02:22:05.822Z,99.90
2019-06-27T02:24:35.354Z,99.90
2019-06-27T02:27:04.897Z,99.90
2019-06-27T02:29:34.365Z,99.90
2019-06-27T02:32:03.873Z,99.90
2019-06-27T02:34:33.367Z,99.90
2019-06-27T02:37:02.856Z,99.90
2019-06-27T02:39:32.323Z,99.90
2019-06-27T02:42:01.833Z,99.90
2019-06-27T02:44:31.316Z,99.90
2019-06-27T02:47:00.873Z,99.90
2019-06-27T02:49:30.356Z,99.90
2019-06-27T02:51:59.843Z,99.90
2019-06-27T02:54:29.308Z,99.90
2019-06-27T02:56:59.142Z,99.90
2019-06-27T02:59:28.684Z,99.90
2019-06-27T03:01:58.174Z,99.90
2019-06-27T03:04:27.620Z,99.90
2019-06-27T03:06:57.104Z,99.90
2019-06-27T03:09:26.553Z,99.90
2019-06-27T03:11:59.953Z,99.90
2019-06-27T03:14:27.191Z,99.90
2019-06-27T03:16:56.672Z,99.90
2019-06-27T03:19:26.156Z,99.90
2019-06-27T03:21:55.632Z,99.90
2019-06-27T03:24:25.116Z,99.90
2019-06-27T03:26:54.638Z,99.90
2019-06-27T03:29:24.164Z,99.90
2019-06-27T03:31:53.664Z,99.90
2019-06-27T03:34:23.186Z,99.90
2019-06-27T03:36:52.661Z,99.90
2019-06-27T03:39:22.175Z,99.90
2019-06-27T03:41:51.643Z,99.90
2019-06-27T03:44:21.120Z,99.90
2019-06-27T03:46:50.625Z,99.90
2019-06-27T03:49:20.074Z,99.90
2019-06-27T03:51:49.592Z,99.90
2019-06-27T03:54:19.085Z,99.90
2019-06-27T03:56:48.581Z,99.90
2019-06-27T03:59:18.064Z,99.90
2019-06-27T04:01:47.674Z,99.90
2019-06-27T04:04:17.195Z,99.90
2019-06-27T04:06:46.667Z,99.90
2019-06-27T04:09:16.123Z,99.90
2019-06-27T04:11:45.670Z,99.90
2019-06-27T04:14:15.174Z,99.90
2019-06-27T04:16:48.740Z,99.90
2019-06-27T04:19:15.845Z,99.90
2019-06-27T04:21:45.324Z,99.90
2019-06-27T04:24:14.828Z,99.90
2019-06-27T04:26:44.548Z,99.90
2019-06-27T04:29:32.118Z,99.90
2019-06-27T04:31:45.480Z,99.90
2019-06-27T04:34:19.349Z,99.90
2019-06-27T04:36:46.088Z,99.90
2019-06-27T04:39:15.622Z,99.90
2019-06-27T04:41:45.098Z,99.90
2019-06-27T04:44:14.555Z,99.90
2019-06-27T04:46:44.033Z,99.90
2019-06-27T04:49:14.085Z,99.90
2019-06-27T04:51:43.642Z,99.90
2019-06-27T04:54:13.141Z,99.90
2019-06-27T04:56:42.609Z,99.90
2019-06-27T04:59:12.262Z,99.90
2019-06-27T05:01:41.742Z,99.90
2019-06-27T05:04:11.208Z,99.90
2019-06-27T05:06:41.002Z,99.90
2019-06-27T05:09:10.468Z,99.90
2019-06-27T05:11:40.009Z,99.90
2019-06-27T05:14:09.470Z,99.90
2019-06-27T05:16:38.953Z,99.90
2019-06-27T05:19:08.452Z,99.90
2019-06-27T05:21:37.928Z,99.90
2019-06-27T05:24:07.500Z,99.90
2019-06-27T05:26:37.058Z,99.90
2019-06-27T05:29:06.532Z,99.90
2019-06-27T05:31:35.995Z,99.90
2019-06-27T05:34:05.639Z,99.90
2019-06-27T05:36:35.350Z,99.90
2019-06-27T05:39:06.216Z,99.90
2019-06-27T05:41:35.675Z,99.90
2019-06-27T05:44:05.187Z,99.90
2019-06-27T05:46:34.682Z,99.90
2019-06-27T05:49:04.262Z,99.90
2019-06-27T05:51:33.696Z,99.90
2019-06-27T05:54:05.308Z,99.90
2019-06-27T05:56:34.827Z,99.90
2019-06-27T05:59:04.366Z,99.90
2019-06-27T06:01:33.845Z,99.90
2019-06-27T06:04:03.350Z,99.90
2019-06-27T06:06:32.977Z,99.90
2019-06-27T06:09:02.459Z,99.90
2019-06-27T06:11:32.014Z,99.90
2019-06-27T06:14:01.542Z,99.90
2019-06-27T06:16:31.032Z,99.90
2019-06-27T06:19:00.559Z,99.90
2019-06-27T06:21:30.034Z,99.90
2019-06-27T06:23:59.565Z,99.90
2019-06-27T06:26:29.054Z,99.90
2019-06-27T06:28:58.579Z,99.90
2019-06-27T06:31:28.165Z,99.90
2019-06-27T06:33:57.943Z,99.90
2019-06-27T06:36:27.616Z,99.90
2019-06-27T06:38:57.283Z,99.90
2019-06-27T06:41:26.754Z,99.90
2019-06-27T06:43:56.231Z,99.90
2019-06-27T06:46:25.658Z,99.90
2019-06-27T06:48:55.246Z,99.90
2019-06-27T06:51:24.719Z,99.90
2019-06-27T06:53:54.195Z,99.90
2019-06-27T06:56:23.604Z,99.90
2019-06-27T06:58:53.081Z,99.90
2019-06-27T07:01:22.525Z,99.90
2019-06-27T07:03:51.994Z,99.90
2019-06-27T07:06:21.431Z,98.50
2019-06-27T07:08:50.984Z,99.30
2019-06-27T07:11:20.722Z,99.30
2019-06-27T07:13:50.216Z,99.90
2019-06-27T07:16:19.670Z,99.60
2019-06-27T07:18:49.161Z,99.70
2019-06-27T07:21:18.660Z,98.30
2019-06-27T07:23:48.125Z,98.00
2019-06-27T07:26:17.684Z,99.90
2019-06-27T07:28:47.170Z,99.90
2019-06-27T07:31:18.153Z,96.70
2019-06-27T07:33:48.143Z,98.30
2019-06-27T07:36:17.716Z,99.10
2019-06-27T07:38:47.500Z,99.90
2019-06-27T07:41:17.168Z,99.90
2019-06-27T07:43:46.526Z,96.60
2019-06-27T07:46:25.212Z,99.90
2019-06-27T07:48:47.153Z,99.40
2019-06-27T07:51:16.656Z,96.10
2019-06-27T07:53:46.119Z,98.90
2019-06-27T07:56:15.594Z,99.90
2019-06-27T07:58:45.029Z,99.50
2019-06-27T08:01:14.511Z,97.30
2019-06-27T08:03:43.980Z,98.60
2019-06-27T08:06:13.517Z,98.00
2019-06-27T08:08:43.080Z,98.50
2019-06-27T08:11:12.815Z,99.60
2019-06-27T08:13:42.231Z,98.40
2019-06-27T08:16:11.774Z,98.80
2019-06-27T08:18:41.235Z,96.20
2019-06-27T08:21:10.830Z,98.60
2019-06-27T08:23:41.771Z,96.60
2019-06-27T08:26:11.437Z,99.90
2019-06-27T08:28:40.886Z,96.10
2019-06-27T08:31:10.409Z,98.60
2019-06-27T08:33:40.180Z,96.60
2019-06-27T08:36:09.697Z,98.70
2019-06-27T08:38:39.140Z,99.50
2019-06-27T08:41:08.605Z,99.90
2019-06-27T08:43:38.096Z,99.90
2019-06-27T08:46:07.614Z,97.80
2019-06-27T08:48:37.091Z,96.80
2019-06-27T08:51:06.740Z,98.30
2019-06-27T08:53:36.175Z,98.60
2019-06-27T08:56:05.854Z,96.30
2019-06-27T08:58:35.264Z,97.90
2019-06-27T09:01:04.780Z,98.10
2019-06-27T09:03:34.300Z,99.30
2019-06-27T09:06:03.817Z,97.70
2019-06-27T09:08:33.294Z,99.50
2019-06-27T09:11:02.768Z,97.30
2019-06-27T09:13:32.544Z,99.90
2019-06-27T09:16:02.522Z,98.60
2019-06-27T09:18:31.968Z,96.80
2019-06-27T09:21:02.030Z,97.60
2019-06-27T09:23:31.722Z,98.20
2019-06-27T09:26:01.301Z,99.00
2019-06-27T09:28:30.792Z,96.60
2019-06-27T09:31:00.308Z,97.00
2019-06-27T09:33:29.750Z,97.80
2019-06-27T09:35:59.216Z,96.30
2019-06-27T09:38:28.694Z,99.20
2019-06-27T09:40:58.146Z,99.90
2019-06-27T09:43:27.605Z,96.40
2019-06-27T09:45:57.174Z,96.60
2019-06-27T09:48:26.653Z,97.40
2019-06-27T09:50:56.122Z,99.30
2019-06-27T09:53:25.569Z,98.60
2019-06-27T09:55:55.159Z,99.90
2019-06-27T09:58:24.647Z,98.30
2019-06-27T10:00:54.110Z,98.30
2019-06-27T10:03:23.591Z,96.80
2019-06-27T10:05:53.393Z,99.80
2019-06-27T10:08:22.847Z,99.90
2019-06-27T10:10:52.305Z,99.10
2019-06-27T10:13:21.829Z,97.30
2019-06-27T10:15:51.278Z,98.20
2019-06-27T10:18:21.058Z,98.50
2019-06-27T10:20:50.524Z,97.40
2019-06-27T10:23:20.015Z,99.20
2019-06-27T10:25:49.776Z,98.40
2019-06-27T10:28:19.250Z,99.20
2019-06-27T10:30:49.410Z,96.30
2019-06-27T10:33:19.081Z,97.80
2019-06-27T10:35:48.738Z,97.10
2019-06-27T10:38:18.284Z,98.20
2019-06-27T10:40:47.767Z,99.80
2019-06-27T10:43:17.267Z,99.00
2019-06-27T10:45:46.717Z,98.40
2019-06-27T10:48:16.218Z,96.80
2019-06-27T10:50:46.615Z,98.40
2019-06-27T10:53:16.273Z,99.90
2019-06-27T10:55:45.710Z,98.50
2019-06-27T10:58:15.177Z,97.20
2019-06-27T11:00:44.774Z,97.20
2019-06-27T11:03:16.102Z,98.40
2019-06-27T11:05:45.422Z,97.00
2019-06-27T11:08:14.905Z,97.10
2019-06-27T11:10:44.339Z,98.10
2019-06-27T11:13:13.838Z,97.60
2019-06-27T11:15:43.431Z,98.30
2019-06-27T11:18:12.890Z,97.70
2019-06-27T11:20:42.411Z,98.00
2019-06-27T11:23:11.901Z,97.40
2019-06-27T11:25:41.363Z,98.30
2019-06-27T11:28:10.844Z,98.00
2019-06-27T11:30:40.340Z,97.20
2019-06-27T11:33:10.088Z,96.70
2019-06-27T11:35:39.522Z,96.10
2019-06-27T11:38:09.333Z,96.00
2019-06-27T11:40:39.627Z,96.00
2019-06-27T11:43:10.248Z,95.90
2019-06-27T11:45:39.779Z,95.20
2019-06-27T11:48:09.316Z,95.60
2019-06-27T11:50:38.970Z,95.10
2019-06-27T11:53:08.487Z,95.60
2019-06-27T11:55:38.083Z,94.00
2019-06-27T11:58:07.562Z,95.20
2019-06-27T12:00:37.089Z,94.80
2019-06-27T12:03:06.603Z,94.40
2019-06-27T12:05:36.095Z,95.90
2019-06-27T12:08:05.756Z,94.80
2019-06-27T12:10:35.262Z,95.20
2019-06-27T12:13:04.707Z,94.50
2019-06-27T12:15:34.200Z,94.40
2019-06-27T12:18:03.645Z,94.90
2019-06-27T12:20:33.277Z,94.30
2019-06-27T12:23:02.746Z,94.90
2019-06-27T12:25:32.246Z,96.30
2019-06-27T12:28:01.741Z,96.00
2019-06-27T12:30:31.244Z,96.30
2019-06-27T12:33:00.675Z,95.80
2019-06-27T12:35:30.328Z,95.40
2019-06-27T12:37:59.870Z,96.20
2019-06-27T12:40:29.342Z,96.60
2019-06-27T12:42:58.976Z,94.40
2019-06-27T12:45:28.592Z,94.90
2019-06-27T12:48:06.070Z,95.70
2019-06-27T12:50:29.349Z,94.50
2019-06-27T12:52:58.799Z,94.80
2019-06-27T12:55:28.327Z,95.30
2019-06-27T12:57:57.822Z,94.30
2019-06-27T13:00:27.743Z,93.70
2019-06-27T13:02:57.187Z,94.80
2019-06-27T13:05:26.674Z,93.60
2019-06-27T13:07:56.215Z,94.50
2019-06-27T13:10:30.345Z,93.30
2019-06-27T13:12:59.790Z,94.60
2019-06-27T13:15:29.388Z,92.10
2019-06-27T13:17:59.030Z,94.00
2019-06-27T13:20:28.530Z,94.80
2019-06-27T13:22:58.003Z,94.00
2019-06-27T13:25:27.530Z,94.80
2019-06-27T13:27:57.024Z,94.60
2019-06-27T13:30:26.733Z,94.00
2019-06-27T13:32:56.240Z,95.40
2019-06-27T13:35:25.760Z,95.30
2019-06-27T13:37:55.352Z,94.50
2019-06-27T13:40:24.936Z,94.60
2019-06-27T13:42:55.685Z,94.80
2019-06-27T13:45:26.595Z,94.60
2019-06-27T13:47:56.429Z,94.40
2019-06-27T13:50:26.002Z,94.20
2019-06-27T13:52:55.480Z,95.10
2019-06-27T13:55:24.964Z,93.20
2019-06-27T13:57:57.496Z,92.40
2019-06-27T14:00:42.273Z,93.90
2019-06-27T14:03:11.722Z,94.20
2019-06-27T14:05:41.317Z,94.20
2019-06-27T14:08:10.778Z,94.20
2019-06-27T14:10:40.284Z,93.20
2019-06-27T14:13:09.871Z,94.30
2019-06-27T14:15:39.407Z,94.30
2019-06-27T14:18:08.865Z,94.70
2019-06-27T14:20:38.370Z,93.90
2019-06-27T14:23:07.927Z,92.90
2019-06-27T14:25:37.581Z,94.20
2019-06-27T14:28:07.061Z,95.00
2019-06-27T14:30:36.616Z,94.40
2019-06-27T14:33:06.107Z,94.40
2019-06-27T14:35:35.599Z,93.80
2019-06-27T14:38:05.044Z,94.50
2019-06-27T14:40:34.635Z,95.00
2019-06-27T14:43:04.155Z,94.40
2019-06-27T14:45:33.605Z,93.20
2019-06-27T14:48:03.268Z,94.00
2019-06-27T14:50:32.698Z,94.40
2019-06-27T14:53:02.177Z,93.80
2019-06-27T14:55:31.649Z,94.10
2019-06-27T14:58:01.087Z,93.80
2019-06-27T15:00:30.656Z,94.10
2019-06-27T15:03:00.163Z,94.30
2019-06-27T15:05:32.906Z,94.50
2019-06-27T15:08:00.812Z,91.90
2019-06-27T15:10:30.263Z,91.80
2019-06-27T15:12:59.851Z,93.10
2019-06-27T15:15:29.376Z,93.00
2019-06-27T15:17:58.848Z,94.30
2019-06-27T15:20:28.546Z,94.20
2019-06-27T15:22:58.143Z,93.10
2019-06-27T15:25:28.538Z,94.60
2019-06-27T15:27:58.286Z,93.20
2019-06-27T15:30:27.792Z,93.80
2019-06-27T15:32:57.253Z,94.20
2019-06-27T15:35:26.700Z,94.60
2019-06-27T15:37:56.213Z,94.10
2019-06-27T15:40:25.650Z,93.90
2019-06-27T15:42:55.160Z,93.40
2019-06-27T15:45:24.827Z,93.30
2019-06-27T15:47:54.324Z,91.20
2019-06-27T15:50:23.804Z,91.90
2019-06-27T15:52:53.302Z,92.60
2019-06-27T15:55:22.799Z,92.90
2019-06-27T15:57:52.379Z,90.00
2019-06-27T16:00:23.446Z,91.60
2019-06-27T16:02:52.948Z,92.00
2019-06-27T16:05:22.487Z,93.20
2019-06-27T16:07:52.106Z,92.20
2019-06-27T16:10:21.880Z,90.80
2019-06-27T16:12:51.414Z,91.30
2019-06-27T16:15:21.352Z,91.60
2019-06-27T16:17:50.948Z,93.30
2019-06-27T16:20:20.723Z,92.80
2019-06-27T16:22:50.182Z,92.70
2019-06-27T16:25:19.700Z,93.50
2019-06-27T16:27:49.290Z,92.90
2019-06-27T16:30:18.950Z,93.10
2019-06-27T16:32:48.444Z,93.50
2019-06-27T16:35:17.916Z,93.90
2019-06-27T16:37:47.385Z,92.90
2019-06-27T16:40:17.182Z,93.30
2019-06-27T16:42:46.694Z,93.00
2019-06-27T16:45:16.552Z,93.40
2019-06-27T16:47:46.030Z,94.00
2019-06-27T16:50:15.673Z,94.20
2019-06-27T16:52:45.218Z,94.30
2019-06-27T16:55:14.856Z,94.00
2019-06-27T16:57:44.872Z,94.20
2019-06-27T17:00:14.375Z,93.10
2019-06-27T17:02:43.856Z,93.60
2019-06-27T17:05:13.415Z,93.70
2019-06-27T17:07:42.869Z,93.60
2019-06-27T17:10:12.531Z,93.70
2019-06-27T17:12:42.016Z,92.70
2019-06-27T17:15:11.738Z,93.30
2019-06-27T17:17:41.206Z,92.30
2019-06-27T17:20:11.129Z,93.90
2019-06-27T17:22:40.655Z,93.00
2019-06-27T17:25:23.081Z,92.20
2019-06-27T17:27:52.509Z,93.20
2019-06-27T17:30:22.079Z,94.60
2019-06-27T17:32:51.580Z,92.70
2019-06-27T17:35:21.123Z,93.70
2019-06-27T17:37:50.554Z,89.80
2019-06-27T17:40:20.390Z,93.30
2019-06-27T17:42:49.829Z,92.00
2019-06-27T17:45:19.432Z,90.20
2019-06-27T17:47:48.890Z,92.60
2019-06-27T17:50:18.467Z,92.30
2019-06-27T17:52:47.943Z,92.40
2019-06-27T17:55:17.451Z,90.80
2019-06-27T17:57:47.370Z,93.20
2019-06-27T18:00:19.362Z,87.60
2019-06-27T18:02:48.843Z,92.80
2019-06-27T18:05:18.773Z,92.30
2019-06-27T18:07:48.447Z,93.10
2019-06-27T18:10:19.434Z,91.60
2019-06-27T18:12:48.923Z,90.00
2019-06-27T18:15:18.398Z,90.60
2019-06-27T18:17:47.998Z,92.10
2019-06-27T18:20:17.721Z,91.30
2019-06-27T18:22:47.178Z,91.70
2019-06-27T18:25:16.670Z,91.70
2019-06-27T18:27:46.131Z,91.20
2019-06-27T18:30:15.886Z,91.20
2019-06-27T18:32:45.446Z,91.10
2019-06-27T18:35:14.901Z,90.80
2019-06-27T18:37:44.368Z,87.60
2019-06-27T18:40:14.275Z,90.10
2019-06-27T18:42:43.746Z,81.80
2019-06-27T18:45:13.414Z,90.40
2019-06-27T18:47:42.907Z,90.00
2019-06-27T18:50:12.375Z,90.30
2019-06-27T18:52:41.829Z,89.40
2019-06-27T18:55:11.437Z,89.30
2019-06-27T18:57:40.881Z,88.00
2019-06-27T19:00:11.160Z,88.60
2019-06-27T19:02:40.646Z,87.30
2019-06-27T19:05:10.544Z,82.50
2019-06-27T19:07:46.053Z,89.20
2019-06-27T19:10:11.591Z,88.20
2019-06-27T19:12:41.076Z,87.50
2019-06-27T19:15:11.236Z,87.10
2019-06-27T19:17:40.692Z,86.80
2019-06-27T19:20:28.336Z,86.70
2019-06-27T19:23:04.573Z,86.70
2019-06-27T19:25:35.429Z,86.20
2019-06-27T19:28:05.335Z,85.80
2019-06-27T19:30:36.424Z,85.80
2019-06-27T19:33:06.003Z,85.40
2019-06-27T19:35:35.472Z,85.00
2019-06-27T19:38:05.039Z,85.10
2019-06-27T19:40:34.529Z,84.70
2019-06-27T19:43:04.011Z,84.90
2019-06-27T19:45:33.538Z,84.40
2019-06-27T19:48:02.998Z,84.30
2019-06-27T19:50:32.427Z,84.20
2019-06-27T19:53:02.280Z,84.20
2019-06-27T19:55:31.773Z,83.90
2019-06-27T19:58:01.226Z,83.80
2019-06-27T20:00:30.697Z,83.60
2019-06-27T20:03:00.161Z,83.50
2019-06-27T20:05:29.633Z,83.10
2019-06-27T20:07:59.160Z,83.20
2019-06-27T20:10:28.806Z,82.60
2019-06-27T20:12:58.344Z,82.50
2019-06-27T20:15:27.826Z,82.60
2019-06-27T20:17:57.332Z,82.40
2019-06-27T20:20:26.897Z,82.30
2019-06-27T20:22:56.398Z,82.50
2019-06-27T20:25:25.897Z,82.10
2019-06-27T20:27:55.460Z,82.10
2019-06-27T20:30:24.980Z,82.20
2019-06-27T20:32:54.487Z,82.30
2019-06-27T20:35:23.944Z,82.00
2019-06-27T20:37:53.447Z,82.20
2019-06-27T20:40:23.324Z,82.10
2019-06-27T20:42:52.789Z,82.20
2019-06-27T20:45:22.615Z,82.50
2019-06-27T20:47:52.119Z,82.10
2019-06-27T20:50:21.557Z,82.20
2019-06-27T20:52:51.030Z,82.70
2019-06-27T20:55:20.478Z,82.50
2019-06-27T20:57:49.976Z,82.60
2019-06-27T21:00:20.317Z,82.70
2019-06-27T21:02:49.838Z,82.70
2019-06-27T21:05:19.313Z,82.70
2019-06-27T21:07:48.880Z,82.80
2019-06-27T21:10:18.652Z,83.00
2019-06-27T21:12:48.154Z,82.90
2019-06-27T21:15:19.694Z,83.20
2019-06-27T21:17:49.166Z,83.00
2019-06-27T21:20:18.666Z,82.70
2019-06-27T21:22:48.139Z,83.10
2019-06-27T21:25:17.644Z,83.30
2019-06-27T21:27:47.138Z,83.00
2019-06-27T21:30:16.968Z,82.90
2019-06-27T21:32:48.409Z,82.90
2019-06-27T21:35:17.562Z,83.10
2019-06-27T21:37:47.043Z,82.40
2019-06-27T21:40:17.429Z,82.10
2019-06-27T21:42:47.286Z,81.90
2019-06-27T21:45:17.143Z,81.90
2019-06-27T21:47:46.665Z,80.90
2019-06-27T21:50:16.294Z,80.80
2019-06-27T21:52:45.758Z,80.50
2019-06-27T21:55:15.209Z,81.20
2019-06-27T21:57:44.721Z,79.80
2019-06-27T22:00:14.642Z,80.10
2019-06-27T22:02:44.188Z,79.60
2019-06-27T22:05:13.924Z,79.40
2019-06-27T22:07:43.417Z,80.40
2019-06-27T22:10:13.354Z,78.70
2019-06-27T22:12:42.827Z,78.70
2019-06-27T22:15:12.274Z,78.50
2019-06-27T22:17:41.793Z,78.60
2019-06-27T22:20:15.619Z,78.60
2019-06-27T22:22:43.602Z,78.40
2019-06-27T22:25:13.705Z,79.40
2019-06-27T22:27:43.185Z,77.40
2019-06-27T22:30:15.250Z,78.90
2019-06-27T22:32:44.822Z,77.70
2019-06-27T22:35:14.828Z,78.30
2019-06-27T22:38:02.079Z,78.90
2019-06-27T22:40:49.150Z,78.30
2019-06-27T22:43:36.391Z,78.30
2019-06-27T22:46:23.567Z,78.40
2019-06-27T22:48:52.382Z,78.10
2019-06-27T22:51:36.198Z,77.30
2019-06-27T22:54:06.135Z,78.00
2019-06-27T22:56:35.564Z,78.00
2019-06-27T22:59:05.043Z,77.50
2019-06-27T23:01:34.530Z,77.80
2019-06-27T23:04:03.983Z,77.20
2019-06-27T23:06:33.485Z,77.20
2019-06-27T23:09:03.011Z,77.10
2019-06-27T23:11:32.430Z,76.00
2019-06-27T23:14:01.939Z,76.80
2019-06-27T23:16:31.369Z,76.20
2019-06-27T23:19:00.972Z,76.10
2019-06-27T23:21:30.430Z,75.80
2019-06-27T23:23:59.893Z,75.60
2019-06-27T23:26:29.403Z,75.40
2019-06-27T23:28:58.867Z,75.20
2019-06-27T23:31:28.313Z,75.10
2019-06-27T23:33:57.895Z,75.10
2019-06-27T23:36:27.331Z,75.20
2019-06-27T23:38:56.841Z,74.80
2019-06-27T23:41:26.264Z,75.30
2019-06-27T23:43:55.710Z,75.00
2019-06-27T23:46:41.837Z,75.00
2019-06-27T23:49:11.794Z,75.10
2019-06-27T23:51:41.330Z,75.10
2019-06-27T23:54:11.700Z,75.20
2019-06-27T23:56:41.173Z,75.10
2019-06-27T23:59:10.644Z,74.90
